Aviation Digital Data Service (ADDS)

Output produced by METARs form (1225 UTC 05 May 2016)
found at http://www.aviationweather.gov/adds/metars/
 
KIPT 051154Z 00000KT 10SM OVC018 11/07 A2969 RMK AO2 SLP056 70011 T01060072 10106 20094 58004
KIPT 051054Z 03003KT 10SM BKN020 OVC025 10/07 A2970 RMK AO2 SLP058 T01000072
KIPT 051038Z 36003KT 10SM BKN018 OVC055 10/07 A2970 RMK AO2 T01000072
KIPT 051012Z AUTO 00000KT 10SM SCT020 BKN046 OVC060 10/07 A2971 RMK AO2 T01000072
KIPT 050954Z AUTO 00000KT 10SM OVC021 10/08 A2970 RMK AO2 SLP058 T01000078
KIPT 050921Z AUTO 00000KT 10SM BKN022 BKN043 OVC080 10/08 A2970 RMK AO2 T01000078
KIPT 050910Z AUTO 00000KT 10SM FEW018 BKN042 OVC080 10/08 A2971 RMK AO2 T01000078
KIPT 050854Z AUTO 07004KT 10SM BKN019 BKN025 OVC043 10/08 A2971 RMK AO2 SLP060 T01000078 55001
KIPT 050754Z AUTO 06003KT 10SM BKN028 OVC034 10/08 A2970 RMK AO2 SLP059 T01000078
KIPT 050752Z AUTO 06004KT 10SM BKN028 OVC035 10/08 A2970 RMK AO2
KIPT 050730Z AUTO 09006KT 10SM SCT026 OVC033 10/08 A2970 RMK AO2 T01000078
KIPT 050654Z AUTO 09007KT 10SM FEW016 BKN026 OVC032 10/08 A2971 RMK AO2 SLP061 T01000078
KIPT 050619Z AUTO 07007KT 10SM BKN015 OVC023 11/08 A2971 RMK AO2 T01060078
KIPT 050554Z AUTO 11008KT 10SM OVC014 11/08 A2971 RMK AO2 SLP061 T01060078 10128 20106 55001
KIPT 050543Z AUTO 10007KT 10SM OVC012 11/08 A2971 RMK AO2 T01060078
KIPT 050454Z AUTO 08005KT 10SM OVC019 11/08 A2971 RMK AO2 SLP060 T01110083 401670111
KIPT 050354Z AUTO 09007KT 10SM SCT015 OVC022 11/09 A2971 RMK AO2 SLP062 T01110089
KIPT 050324Z AUTO 09008KT 10SM OVC015 11/09 A2971 RMK AO2 T01110089
KIPT 050301Z AUTO 09007KT 10SM OVC014 12/08 A2971 RMK AO2 T01170083
KIPT 050254Z AUTO 09008KT 10SM OVC015 12/08 A2971 RMK AO2 SLP063 T01170083 50009
KIPT 050154Z 09007KT 10SM OVC022 12/08 A2972 RMK AO2 SLP064 T01220083
KIPT 050054Z 10009KT 10SM BKN019 BKN027 OVC037 12/09 A2970 RMK AO2 SLP059 T01220089
KIPT 050037Z 10007KT 10SM BKN019 BKN026 OVC037 12/09 A2970 RMK AO2 T01220089
KIPT 042354Z 10010KT 10SM OVC035 13/09 A2969 RMK AO2 SLP053 T01280089 10167 20128 53010
KIPT 042340Z 09008KT 10SM OVC031 13/09 A2968 RMK AO2 T01280089
KIPT 042254Z 09011KT 10SM OVC025 14/09 A2967 RMK AO2 SLP048 T01390089
KIPT 042245Z 10010KT 10SM BKN024 OVC075 14/09 A2967 RMK AO2 T01390089
KIPT 042154Z 10011G16KT 10SM CLR 16/09 A2966 RMK AO2 SLP043 T01560094
KIPT 042054Z 10009KT 10SM BKN050 16/09 A2966 RMK AO2 SLP042 T01560094 56014
KIPT 041954Z 10006KT 10SM SCT035 BKN060 14/08 A2966 RMK AO2 SLP043 T01440083
KIPT 041920Z 10008KT 10SM FEW022 SCT027 BKN042 15/09 A2967 RMK AO2 T01500089
KIPT 041854Z 14007KT 10SM SCT020 BKN025 OVC040 15/09 A2968 RMK AO2 SLP048 T01500094
KIPT 041754Z 11004KT 10SM BKN024 OVC031 14/09 A2970 RMK AO2 SLP056 60011 T01390094 10144 20117 58007
KIPT 041654Z 12009KT 10SM BKN020 BKN029 OVC090 14/10 A2970 RMK AO2 SLP058 T01440100
KIPT 041630Z 10007KT 10SM SCT018 BKN024 OVC095 14/10 A2971 RMK AO2 T01440100
KIPT 041611Z 12006KT 10SM SCT020 BKN031 OVC095 14/10 A2972 RMK AO2 T01390100
KIPT 041554Z 13007KT 10SM BKN019 BKN027 OVC041 14/10 A2972 RMK AO2 RAB1455E11 SLP063 P0000 T01390100
KIPT 041537Z 13007KT 10SM BKN017 OVC035 13/10 A2972 RMK AO2 RAB1455E11 P0000 T01330100
KIPT 041454Z VRB04KT 5SM BR OVC013 13/11 A2972 RMK AO2 RAE50 SLP064 P0009 60011 T01280106 56005
KIPT 041441Z 10003KT 5SM -RA BR OVC013 13/11 A2972 RMK AO2 P0009 T01280106
KIPT 041434Z 00000KT 2 1/2SM -RA BR BKN013 OVC027 13/11 A2972 RMK AO2 P0008 T01280106
KIPT 041417Z 00000KT 1 3/4SM +RA BR OVC011 12/10 A2972 RMK AO2 P0002 T01220100
KIPT 041354Z 14004KT 7SM -RA OVC011 12/10 A2972 RMK AO2 RAB25 SLP065 P0002 T01220100
KIPT 041341Z 12005KT 7SM -RA OVC010 12/10 A2972 RMK AO2 RAB25 P0001 T01220100
KIPT 041254Z 10004KT 10SM OVC008 12/10 A2973 RMK AO2 SLP067 T01220100
KIPT 041154Z 00000KT 10SM OVC008 12/09 A2973 RMK AO2 SLP069 T01170094 10122 20111 53001
KIPT 041054Z 00000KT 10SM OVC009 11/08 A2973 RMK AO2 SLP068 T01110083
KIPT 040954Z AUTO 00000KT 10SM OVC011 11/09 A2973 RMK AO2 SLP068 T01110089
KIPT 040854Z AUTO 03003KT 10SM OVC012 11/09 A2973 RMK AO2 SLP068 T01110089 56011
KIPT 040828Z AUTO 00000KT 10SM OVC014 12/09 A2974 RMK AO2 T01170089
KIPT 040754Z AUTO 00000KT 10SM OVC019 11/09 A2974 RMK AO2 SLP071 T01110089
KIPT 040654Z AUTO 02003KT 10SM OVC023 12/08 A2975 RMK AO2 SLP076 T01170083
KIPT 040554Z AUTO 08003KT 10SM SCT018 OVC025 11/08 A2977 RMK AO2 SLP080 T01110083 10133 20111 58007
KIPT 040454Z AUTO 34003KT 10SM BKN015 OVC028 12/08 A2978 RMK AO2 SLP085 T01170083 401440094
KIPT 040354Z AUTO 35003KT 10SM OVC020 12/09 A2978 RMK AO2 SLP085 T01170089
KIPT 040254Z AUTO 01003KT 10SM OVC028 12/08 A2979 RMK AO2 SLP087 T01170083 50002
KIPT 040154Z 36003KT 10SM BKN028 OVC080 12/09 A2981 RMK AO2 SLP094 T01220089
KIPT 040054Z 10004KT 10SM BKN026 OVC080 12/09 A2980 RMK AO2 SLP090 T01170089
KIPT 040039Z 00000KT 10SM BKN025 12/09 A2980 RMK AO2 T01220089